sensor_id;sensor_type;location;lat;lon;timestamp;pressure;altitude;pressure_sealevel;temperature;humidity
70815;BME280;58428;49.478;10.986;2023-03-24T00:00:09;97572.88;;;13.77;100.00
70815;BME280;58428;49.478;10.986;2023-03-24T00:02:40;97576.31;;;13.74;100.00
70815;BME280;58428;49.478;10.986;2023-03-24T00:05:17;97571.63;;;13.71;100.00
70815;BME280;58428;49.478;10.986;2023-03-24T00:07:43;97570.84;;;13.70;100.00
70815;BME280;58428;49.478;10.986;2023-03-24T00:10:14;97577.78;;;13.68;100.00
70815;BME280;58428;49.478;10.986;2023-03-24T00:12:40;97577.06;;;13.71;100.00
70815;BME280;58428;49.478;10.986;2023-03-24T00:15:12;97573.19;;;13.72;100.00
70815;BME280;58428;49.478;10.986;2023-03-24T00:17:39;97576.31;;;13.74;100.00
70815;BME280;58428;49.478;10.986;2023-03-24T00:20:06;97574.75;;;13.73;100.00
70815;BME280;58428;49.478;10.986;2023-03-24T00:22:38;97575.19;;;13.75;100.00
70815;BME280;58428;49.478;10.986;2023-03-24T00:25:08;97570.16;;;13.77;100.00
70815;BME280;58428;49.478;10.986;2023-03-24T00:27:34;97568.28;;;13.81;100.00
70815;BME280;58428;49.478;10.986;2023-03-24T00:30:06;97559.34;;;13.80;100.00
70815;BME280;58428;49.478;10.986;2023-03-24T00:32:32;97559.69;;;13.79;100.00
70815;BME280;58428;49.478;10.986;2023-03-24T00:35:04;97550.38;;;13.80;100.00
70815;BME280;58428;49.478;10.986;2023-03-24T00:37:31;97557.06;;;13.86;100.00
70815;BME280;58428;49.478;10.986;2023-03-24T00:39:58;97553.16;;;13.83;100.00
70815;BME280;58428;49.478;10.986;2023-03-24T00:42:26;97553.94;;;13.84;100.00
70815;BME280;58428;49.478;10.986;2023-03-24T00:44:53;97561.66;;;13.78;100.00
70815;BME280;58428;49.478;10.986;2023-03-24T00:47:19;97569.00;;;13.78;100.00
70815;BME280;58428;49.478;10.986;2023-03-24T00:49:50;97575.66;;;13.80;100.00
70815;BME280;58428;49.478;10.986;2023-03-24T00:52:21;97569.47;;;13.83;100.00
70815;BME280;58428;49.478;10.986;2023-03-24T00:54:49;97562.94;;;13.88;100.00
70815;BME280;58428;49.478;10.986;2023-03-24T00:57:17;97559.84;;;13.89;100.00
70815;BME280;58428;49.478;10.986;2023-03-24T00:59:50;97550.44;;;13.83;100.00
70815;BME280;58428;49.478;10.986;2023-03-24T01:02:19;97553.16;;;13.83;100.00
70815;BME280;58428;49.478;10.986;2023-03-24T01:04:50;97555.41;;;13.78;100.00
70815;BME280;58428;49.478;10.986;2023-03-24T01:07:20;97555.41;;;13.78;100.00
70815;BME280;58428;49.478;10.986;2023-03-24T01:09:47;97549.25;;;13.81;100.00
70815;BME280;58428;49.478;10.986;2023-03-24T01:12:29;97533.63;;;13.74;100.00
70815;BME280;58428;49.478;10.986;2023-03-24T01:14:54;97537.06;;;13.71;100.00
70815;BME280;58428;49.478;10.986;2023-03-24T01:17:21;97527.59;;;13.62;100.00
70815;BME280;58428;49.478;10.986;2023-03-24T01:19:47;97538.16;;;13.67;100.00
70815;BME280;58428;49.478;10.986;2023-03-24T01:22:15;97538.81;;;13.60;100.00
70815;BME280;58428;49.478;10.986;2023-03-24T01:24:41;97550.03;;;13.56;100.00
70815;BME280;58428;49.478;10.986;2023-03-24T01:27:08;97549.91;;;13.49;100.00
70815;BME280;58428;49.478;10.986;2023-03-24T01:29:33;97557.75;;;13.54;100.00
70815;BME280;58428;49.478;10.986;2023-03-24T01:31:58;97557.44;;;13.59;100.00
70815;BME280;58428;49.478;10.986;2023-03-24T01:34:25;97562.03;;;13.55;100.00
70815;BME280;58428;49.478;10.986;2023-03-24T01:36:51;97556.94;;;13.50;100.00
70815;BME280;58428;49.478;10.986;2023-03-24T01:39:16;97576.38;;;13.52;100.00
70815;BME280;58428;49.478;10.986;2023-03-24T01:41:42;97573.16;;;13.46;100.00
70815;BME280;58428;49.478;10.986;2023-03-24T01:44:32;97575.81;;;13.43;100.00
70815;BME280;58428;49.478;10.986;2023-03-24T01:46:59;97563.81;;;13.44;100.00
70815;BME280;58428;49.478;10.986;2023-03-24T01:49:35;97551.00;;;13.44;100.00
70815;BME280;58428;49.478;10.986;2023-03-24T01:52:03;97535.69;;;13.33;100.00
70815;BME280;58428;49.478;10.986;2023-03-24T01:54:51;97525.13;;;13.28;100.00
70815;BME280;58428;49.478;10.986;2023-03-24T01:57:40;97506.06;;;13.24;100.00
70815;BME280;58428;49.478;10.986;2023-03-24T02:00:10;97499.84;;;13.24;100.00
70815;BME280;58428;49.478;10.986;2023-03-24T02:02:39;97494.28;;;13.17;100.00
70815;BME280;58428;49.478;10.986;2023-03-24T02:05:09;97488.50;;;13.19;100.00
70815;BME280;58428;49.478;10.986;2023-03-24T02:10:19;97489.00;;;13.24;100.00
70815;BME280;58428;49.478;10.986;2023-03-24T02:12:46;97485.00;;;13.18;100.00
70815;BME280;58428;49.478;10.986;2023-03-24T02:15:15;97482.25;;;13.15;100.00
70815;BME280;58428;49.478;10.986;2023-03-24T02:32:22;97455.56;;;13.20;100.00
70815;BME280;58428;49.478;10.986;2023-03-24T02:40:48;97444.63;;;13.17;100.00
70815;BME280;58428;49.478;10.986;2023-03-24T02:44:06;97439.13;;;13.13;100.00
70815;BME280;58428;49.478;10.986;2023-03-24T02:57:30;97412.28;;;13.08;100.00
70815;BME280;58428;49.478;10.986;2023-03-24T03:02:34;97410.72;;;13.07;100.00
70815;BME280;58428;49.478;10.986;2023-03-24T03:05:05;97404.56;;;13.10;100.00
70815;BME280;58428;49.478;10.986;2023-03-24T03:07:34;97404.25;;;13.15;100.00
70815;BME280;58428;49.478;10.986;2023-03-24T03:10:28;97396.53;;;13.17;100.00
70815;BME280;58428;49.478;10.986;2023-03-24T03:12:58;97405.41;;;13.14;100.00
70815;BME280;58428;49.478;10.986;2023-03-24T03:15:32;97409.38;;;13.20;100.00
70815;BME280;58428;49.478;10.986;2023-03-24T03:18:15;97404.38;;;13.22;100.00
70815;BME280;58428;49.478;10.986;2023-03-24T03:20:46;97402.72;;;13.18;100.00
70815;BME280;58428;49.478;10.986;2023-03-24T03:23:57;97395.75;;;13.17;100.00
70815;BME280;58428;49.478;10.986;2023-03-24T03:26:28;97399.25;;;13.17;100.00
70815;BME280;58428;49.478;10.986;2023-03-24T03:29:10;97392.97;;;13.13;100.00
70815;BME280;58428;49.478;10.986;2023-03-24T03:31:44;97389.16;;;13.18;100.00
70815;BME280;58428;49.478;10.986;2023-03-24T03:34:30;97381.88;;;13.25;100.00
70815;BME280;58428;49.478;10.986;2023-03-24T03:37:07;97386.22;;;13.29;100.00
70815;BME280;58428;49.478;10.986;2023-03-24T03:39:48;97375.75;;;13.31;100.00
70815;BME280;58428;49.478;10.986;2023-03-24T03:42:23;97389.72;;;13.30;100.00
70815;BME280;58428;49.478;10.986;2023-03-24T03:45:24;97388.16;;;13.29;100.00
70815;BME280;58428;49.478;10.986;2023-03-24T03:48:05;97399.78;;;13.29;100.00
70815;BME280;58428;49.478;10.986;2023-03-24T03:50:32;97387.78;;;13.30;100.00
70815;BME280;58428;49.478;10.986;2023-03-24T03:52:58;97386.22;;;13.29;100.00
70815;BME280;58428;49.478;10.986;2023-03-24T03:55:26;97381.16;;;13.28;100.00
70815;BME280;58428;49.478;10.986;2023-03-24T03:57:54;97393.50;;;13.22;100.00
70815;BME280;58428;49.478;10.986;2023-03-24T04:00:26;97384.94;;;13.20;100.00
70815;BME280;58428;49.478;10.986;2023-03-24T04:05:38;97389.69;;;13.26;100.00
70815;BME280;58428;49.478;10.986;2023-03-24T04:08:24;97392.06;;;13.31;100.00
70815;BME280;58428;49.478;10.986;2023-03-24T04:25:19;97373.44;;;13.30;100.00
70815;BME280;58428;49.478;10.986;2023-03-24T04:28:20;97373.09;;;13.35;100.00
70815;BME280;58428;49.478;10.986;2023-03-24T04:30:59;97374.28;;;13.37;100.00
70815;BME280;58428;49.478;10.986;2023-03-24T04:38:32;97370.78;;;13.37;100.00
70815;BME280;58428;49.478;10.986;2023-03-24T04:41:01;97375.75;;;13.31;100.00
70815;BME280;58428;49.478;10.986;2023-03-24T04:43:30;97374.25;;;13.34;100.00
70815;BME280;58428;49.478;10.986;2023-03-24T04:46:01;97380.78;;;13.29;100.00
70815;BME280;58428;49.478;10.986;2023-03-24T04:48:28;97374.63;;;13.32;100.00
70815;BME280;58428;49.478;10.986;2023-03-24T04:50:55;97377.28;;;13.29;100.00
70815;BME280;58428;49.478;10.986;2023-03-24T04:53:22;97366.75;;;13.24;100.00
70815;BME280;58428;49.478;10.986;2023-03-24T04:56:17;97365.22;;;13.26;100.00
70815;BME280;58428;49.478;10.986;2023-03-24T04:58:50;97366.34;;;13.22;100.00
70815;BME280;58428;49.478;10.986;2023-03-24T05:01:16;97364.03;;;13.24;100.00
70815;BME280;58428;49.478;10.986;2023-03-24T05:03:46;97357.84;;;13.27;100.00
70815;BME280;58428;49.478;10.986;2023-03-24T05:06:12;97350.91;;;13.29;100.00
70815;BME280;58428;49.478;10.986;2023-03-24T05:08:39;97338.06;;;13.26;100.00
70815;BME280;58428;49.478;10.986;2023-03-24T05:11:05;97343.22;;;13.35;100.00
70815;BME280;58428;49.478;10.986;2023-03-24T05:13:31;97345.09;;;13.31;100.00
70815;BME280;58428;49.478;10.986;2023-03-24T05:15:57;97341.66;;;13.34;100.00
70815;BME280;58428;49.478;10.986;2023-03-24T05:18:23;97355.31;;;13.41;100.00
70815;BME280;58428;49.478;10.986;2023-03-24T05:20:48;97356.13;;;13.41;100.00
70815;BME280;58428;49.478;10.986;2023-03-24T05:23:14;97358.78;;;13.38;100.00
70815;BME280;58428;49.478;10.986;2023-03-24T05:25:41;97354.50;;;13.37;100.00
70815;BME280;58428;49.478;10.986;2023-03-24T05:28:07;97349.47;;;13.39;100.00
70815;BME280;58428;49.478;10.986;2023-03-24T05:30:34;97343.72;;;13.44;100.00
70815;BME280;58428;49.478;10.986;2023-03-24T05:33:00;97346.50;;;13.47;100.00
70815;BME280;58428;49.478;10.986;2023-03-24T05:35:25;97353.53;;;13.52;100.00
70815;BME280;58428;49.478;10.986;2023-03-24T05:37:53;97359.44;;;13.57;100.00
70815;BME280;58428;49.478;10.986;2023-03-24T05:40:19;97363.38;;;13.63;100.00
70815;BME280;58428;49.478;10.986;2023-03-24T05:42:48;97362.69;;;13.69;100.00
70815;BME280;58428;49.478;10.986;2023-03-24T05:45:14;97367.00;;;13.74;100.00
70815;BME280;58428;49.478;10.986;2023-03-24T05:47:40;97364.31;;;13.77;100.00
70815;BME280;58428;49.478;10.986;2023-03-24T05:50:06;97374.84;;;13.79;100.00
70815;BME280;58428;49.478;10.986;2023-03-24T05:52:32;97375.59;;;13.79;100.00
70815;BME280;58428;49.478;10.986;2023-03-24T05:54:58;97378.41;;;13.86;100.00
70815;BME280;58428;49.478;10.986;2023-03-24T05:57:25;97381.59;;;13.92;100.00
70815;BME280;58428;49.478;10.986;2023-03-24T05:59:51;97388.22;;;13.94;100.00
70815;BME280;58428;49.478;10.986;2023-03-24T06:02:18;97391.00;;;13.98;100.00
70815;BME280;58428;49.478;10.986;2023-03-24T06:04:44;97389.91;;;14.02;100.00
70815;BME280;58428;49.478;10.986;2023-03-24T06:07:11;97395.75;;;14.04;100.00
70815;BME280;58428;49.478;10.986;2023-03-24T06:09:37;97392.69;;;14.09;100.00
70815;BME280;58428;49.478;10.986;2023-03-24T06:12:07;97393.13;;;14.14;100.00
70815;BME280;58428;49.478;10.986;2023-03-24T06:14:33;97390.44;;;14.18;100.00
70815;BME280;58428;49.478;10.986;2023-03-24T06:16:59;97383.09;;;14.22;100.00
70815;BME280;58428;49.478;10.986;2023-03-24T06:19:25;97387.06;;;14.28;100.00
70815;BME280;58428;49.478;10.986;2023-03-24T06:21:53;97382.47;;;14.35;100.00
70815;BME280;58428;49.478;10.986;2023-03-24T06:24:22;97383.28;;;14.39;100.00
70815;BME280;58428;49.478;10.986;2023-03-24T06:26:52;97385.69;;;14.44;100.00
70815;BME280;58428;49.478;10.986;2023-03-24T06:29:17;97393.84;;;14.44;100.00
70815;BME280;58428;49.478;10.986;2023-03-24T06:31:44;97400.44;;;14.43;100.00
70815;BME280;58428;49.478;10.986;2023-03-24T06:34:10;97406.63;;;14.40;100.00
70815;BME280;58428;49.478;10.986;2023-03-24T06:36:37;97419.03;;;14.37;100.00
70815;BME280;58428;49.478;10.986;2023-03-24T06:39:03;97432.22;;;14.35;100.00
70815;BME280;58428;49.478;10.986;2023-03-24T06:41:32;97433.41;;;14.38;100.00
70815;BME280;58428;49.478;10.986;2023-03-24T06:43:57;97435.41;;;14.41;100.00
70815;BME280;58428;49.478;10.986;2023-03-24T06:46:24;97443.94;;;14.39;100.00
70815;BME280;58428;49.478;10.986;2023-03-24T06:48:50;97454.34;;;14.31;100.00
70815;BME280;58428;49.478;10.986;2023-03-24T06:51:16;97459.25;;;14.18;100.00
70815;BME280;58428;49.478;10.986;2023-03-24T06:53:42;97452.66;;;14.19;100.00
70815;BME280;58428;49.478;10.986;2023-03-24T06:56:09;97452.69;;;14.23;100.00
70815;BME280;58428;49.478;10.986;2023-03-24T06:58:40;97460.09;;;14.26;100.00
70815;BME280;58428;49.478;10.986;2023-03-24T07:01:06;97458.56;;;14.28;100.00
70815;BME280;58428;49.478;10.986;2023-03-24T07:03:32;97464.84;;;14.32;100.00
70815;BME280;58428;49.478;10.986;2023-03-24T07:05:57;97473.09;;;14.39;100.00
70815;BME280;58428;49.478;10.986;2023-03-24T07:08:26;97481.84;;;14.58;100.00
70815;BME280;58428;49.478;10.986;2023-03-24T07:10:51;97472.22;;;14.68;100.00
70815;BME280;58428;49.478;10.986;2023-03-24T07:13:17;97485.03;;;14.64;100.00
70815;BME280;58428;49.478;10.986;2023-03-24T07:15:43;97482.34;;;14.71;100.00
70815;BME280;58428;49.478;10.986;2023-03-24T07:18:09;97489.72;;;14.67;100.00
70815;BME280;58428;49.478;10.986;2023-03-24T07:20:37;97491.16;;;14.57;100.00
70815;BME280;58428;49.478;10.986;2023-03-24T07:23:02;97486.88;;;14.56;100.00
70815;BME280;58428;49.478;10.986;2023-03-24T07:25:29;97476.38;;;14.55;100.00
70815;BME280;58428;49.478;10.986;2023-03-24T07:27:55;97476.00;;;14.56;100.00
70815;BME280;58428;49.478;10.986;2023-03-24T07:30:22;97486.94;;;14.60;100.00
70815;BME280;58428;49.478;10.986;2023-03-24T07:32:48;97479.09;;;14.55;100.00
70815;BME280;58428;49.478;10.986;2023-03-24T07:35:16;97483.78;;;14.58;100.00
70815;BME280;58428;49.478;10.986;2023-03-24T07:37:42;97488.69;;;14.45;100.00
70815;BME280;58428;49.478;10.986;2023-03-24T07:40:11;97488.38;;;14.50;100.00
70815;BME280;58428;49.478;10.986;2023-03-24T07:42:42;97485.69;;;14.54;100.00
70815;BME280;58428;49.478;10.986;2023-03-24T07:45:11;97480.53;;;14.45;100.00
70815;BME280;58428;49.478;10.986;2023-03-24T07:47:38;97493.38;;;14.45;100.00
70815;BME280;58428;49.478;10.986;2023-03-24T07:50:09;97490.19;;;14.39;100.00
70815;BME280;58428;49.478;10.986;2023-03-24T07:52:39;97484.34;;;14.37;100.00
70815;BME280;58428;49.478;10.986;2023-03-24T07:55:13;97490.28;;;14.46;100.00
70815;BME280;58428;49.478;10.986;2023-03-24T07:57:45;97486.88;;;14.56;100.00
70815;BME280;58428;49.478;10.986;2023-03-24T08:00:12;97481.09;;;14.61;100.00
70815;BME280;58428;49.478;10.986;2023-03-24T08:03:05;97472.97;;;14.65;100.00
70815;BME280;58428;49.478;10.986;2023-03-24T08:05:34;97482.75;;;14.72;100.00
70815;BME280;58428;49.478;10.986;2023-03-24T08:07:59;97472.06;;;14.93;100.00
70815;BME280;58428;49.478;10.986;2023-03-24T08:10:29;97468.63;;;14.96;100.00
70815;BME280;58428;49.478;10.986;2023-03-24T08:12:57;97464.81;;;15.11;100.00
70815;BME280;58428;49.478;10.986;2023-03-24T08:15:24;97468.31;;;15.11;100.00
70815;BME280;58428;49.478;10.986;2023-03-24T08:17:51;97478.91;;;15.16;100.00
70815;BME280;58428;49.478;10.986;2023-03-24T08:20:19;97477.19;;;15.02;100.00
70815;BME280;58428;49.478;10.986;2023-03-24T08:22:50;97482.53;;;14.88;100.00
70815;BME280;58428;49.478;10.986;2023-03-24T08:25:20;97487.25;;;14.91;100.00
70815;BME280;58428;49.478;10.986;2023-03-24T08:27:49;97495.72;;;14.86;100.00
70815;BME280;58428;49.478;10.986;2023-03-24T08:30:20;97487.59;;;14.89;100.00
70815;BME280;58428;49.478;10.986;2023-03-24T08:32:56;97489.19;;;14.90;100.00
70815;BME280;58428;49.478;10.986;2023-03-24T08:35:26;97499.75;;;14.99;100.00
70815;BME280;58428;49.478;10.986;2023-03-24T08:37:51;97496.69;;;15.04;100.00
70815;BME280;58428;49.478;10.986;2023-03-24T08:40:19;97501.31;;;15.00;100.00
70815;BME280;58428;49.478;10.986;2023-03-24T08:42:50;97505.56;;;14.97;100.00
70815;BME280;58428;49.478;10.986;2023-03-24T08:45:17;97513.66;;;14.87;100.00
70815;BME280;58428;49.478;10.986;2023-03-24T08:47:48;97513.69;;;14.90;100.00
70815;BME280;58428;49.478;10.986;2023-03-24T08:50:22;97514.50;;;14.94;100.00
70815;BME280;58428;49.478;10.986;2023-03-24T08:52:49;97509.47;;;14.96;100.00
70815;BME280;58428;49.478;10.986;2023-03-24T08:55:16;97520.19;;;14.82;100.00
70815;BME280;58428;49.478;10.986;2023-03-24T08:57:44;97518.50;;;14.68;100.00
70815;BME280;58428;49.478;10.986;2023-03-24T09:00:10;97514.22;;;14.67;100.00
70815;BME280;58428;49.478;10.986;2023-03-24T09:02:43;97516.53;;;14.65;100.00
70815;BME280;58428;49.478;10.986;2023-03-24T09:05:13;97517.25;;;14.58;100.00
70815;BME280;58428;49.478;10.986;2023-03-24T09:08:16;97518.00;;;14.59;100.00
70815;BME280;58428;49.478;10.986;2023-03-24T09:10:43;97521.91;;;14.58;100.00
70815;BME280;58428;49.478;10.986;2023-03-24T09:13:27;97528.78;;;14.48;100.00
70815;BME280;58428;49.478;10.986;2023-03-24T09:15:56;97523.97;;;14.35;100.00
70815;BME280;58428;49.478;10.986;2023-03-24T09:18:23;97526.38;;;14.40;100.00
70815;BME280;58428;49.478;10.986;2023-03-24T09:20:50;97522.53;;;14.44;100.00
70815;BME280;58428;49.478;10.986;2023-03-24T09:23:15;97524.78;;;14.39;100.00
70815;BME280;58428;49.478;10.986;2023-03-24T09:25:41;97523.59;;;14.36;100.00
70815;BME280;58428;49.478;10.986;2023-03-24T09:28:06;97525.88;;;14.31;100.00
70815;BME280;58428;49.478;10.986;2023-03-24T09:30:35;97516.09;;;14.27;100.00
70815;BME280;58428;49.478;10.986;2023-03-24T09:33:02;97509.59;;;14.35;100.00
70815;BME280;58428;49.478;10.986;2023-03-24T09:35:30;97469.59;;;14.38;100.00
70815;BME280;58428;49.478;10.986;2023-03-24T09:37:55;97468.00;;;14.37;100.00
70815;BME280;58428;49.478;10.986;2023-03-24T09:40:25;97492.44;;;14.31;100.00
70815;BME280;58428;49.478;10.986;2023-03-24T09:45:52;97506.47;;;14.33;100.00
70815;BME280;58428;49.478;10.986;2023-03-24T09:48:32;97498.44;;;14.46;100.00
70815;BME280;58428;49.478;10.986;2023-03-24T09:53:45;97502.94;;;14.68;100.00
70815;BME280;58428;49.478;10.986;2023-03-24T09:56:18;97496.91;;;14.88;100.00
70815;BME280;58428;49.478;10.986;2023-03-24T09:58:50;97491.00;;;15.19;100.00
70815;BME280;58428;49.478;10.986;2023-03-24T10:01:17;97500.50;;;15.39;100.00
70815;BME280;58428;49.478;10.986;2023-03-24T10:03:43;97512.81;;;15.69;100.00
70815;BME280;58428;49.478;10.986;2023-03-24T10:06:24;97513.41;;;16.05;100.00
70815;BME280;58428;49.478;10.986;2023-03-24T10:23:28;97509.13;;;16.08;100.00
70815;BME280;58428;49.478;10.986;2023-03-24T10:29:11;97506.34;;;15.97;100.00
70815;BME280;58428;49.478;10.986;2023-03-24T10:31:45;97496.16;;;15.84;100.00
70815;BME280;58428;49.478;10.986;2023-03-24T10:34:14;97483.66;;;15.83;100.00
70815;BME280;58428;49.478;10.986;2023-03-24T10:36:43;97483.78;;;16.04;100.00
70815;BME280;58428;49.478;10.986;2023-03-24T10:39:17;97493.53;;;16.08;100.00
70815;BME280;58428;49.478;10.986;2023-03-24T10:41:44;97501.25;;;15.92;100.00
70815;BME280;58428;49.478;10.986;2023-03-24T10:44:12;97505.16;;;15.91;100.00
70815;BME280;58428;49.478;10.986;2023-03-24T10:46:44;97495.38;;;15.83;100.00
70815;BME280;58428;49.478;10.986;2023-03-24T10:49:17;97497.38;;;15.93;100.00
70815;BME280;58428;49.478;10.986;2023-03-24T10:51:58;97499.81;;;16.16;100.00
70815;BME280;58428;49.478;10.986;2023-03-24T10:54:29;97495.94;;;16.17;100.00
70815;BME280;58428;49.478;10.986;2023-03-24T11:05:11;97517.19;;;15.87;100.00
70815;BME280;58428;49.478;10.986;2023-03-24T11:07:39;97507.09;;;15.87;100.00
70815;BME280;58428;49.478;10.986;2023-03-24T11:12:39;97514.06;;;15.85;100.00
70815;BME280;58428;49.478;10.986;2023-03-24T11:18:13;97505.34;;;15.59;100.00
70815;BME280;58428;49.478;10.986;2023-03-24T11:20:46;97496.66;;;15.43;100.00
70815;BME280;58428;49.478;10.986;2023-03-24T11:23:20;97502.16;;;15.50;100.00
70815;BME280;58428;49.478;10.986;2023-03-24T11:26:02;97495.47;;;15.44;100.00
70815;BME280;58428;49.478;10.986;2023-03-24T11:28:38;97488.97;;;15.59;100.00
70815;BME280;58428;49.478;10.986;2023-03-24T11:31:08;97481.69;;;15.77;100.00
70815;BME280;58428;49.478;10.986;2023-03-24T11:33:41;97491.13;;;15.96;100.00
70815;BME280;58428;49.478;10.986;2023-03-24T11:39:03;97494.25;;;15.91;100.00
70815;BME280;58428;49.478;10.986;2023-03-24T11:41:35;97482.94;;;15.89;100.00
70815;BME280;58428;49.478;10.986;2023-03-24T11:44:22;97478.75;;;16.09;100.00
70815;BME280;58428;49.478;10.986;2023-03-24T11:47:07;97474.81;;;16.03;100.00
70815;BME280;58428;49.478;10.986;2023-03-24T11:50:03;97468.31;;;16.28;100.00
70815;BME280;58428;49.478;10.986;2023-03-24T11:52:36;97467.19;;;16.40;100.00
70815;BME280;58428;49.478;10.986;2023-03-24T11:55:17;97476.19;;;16.47;100.00
70815;BME280;58428;49.478;10.986;2023-03-24T11:58:05;97461.34;;;16.48;100.00
70815;BME280;58428;49.478;10.986;2023-03-24T12:09:17;97449.19;;;16.18;100.00
70815;BME280;58428;49.478;10.986;2023-03-24T12:12:00;97435.53;;;16.25;100.00
70815;BME280;58428;49.478;10.986;2023-03-24T12:17:26;97433.19;;;16.23;100.00
70815;BME280;58428;49.478;10.986;2023-03-24T12:23:03;97446.81;;;16.17;100.00
70815;BME280;58428;49.478;10.986;2023-03-24T12:28:05;97436.78;;;16.45;100.00
70815;BME280;58428;49.478;10.986;2023-03-24T12:34:04;97414.59;;;16.67;100.00
70815;BME280;58428;49.478;10.986;2023-03-24T12:39:30;97404.84;;;16.83;100.00
70815;BME280;58428;49.478;10.986;2023-03-24T12:42:09;97397.81;;;16.93;100.00
70815;BME280;58428;49.478;10.986;2023-03-24T12:50:23;97390.00;;;17.08;100.00
70815;BME280;58428;49.478;10.986;2023-03-24T12:56:09;97378.31;;;16.97;100.00
70815;BME280;58428;49.478;10.986;2023-03-24T12:58:41;97385.31;;;16.67;100.00
70815;BME280;58428;49.478;10.986;2023-03-24T13:04:26;97388.78;;;16.37;100.00
70815;BME280;58428;49.478;10.986;2023-03-24T13:07:06;97382.47;;;16.09;100.00
70815;BME280;58428;49.478;10.986;2023-03-24T13:12:23;97393.56;;;15.62;100.00
70815;BME280;58428;49.478;10.986;2023-03-24T13:20:34;97433.72;;;14.30;100.00
70815;BME280;58428;49.478;10.986;2023-03-24T13:26:39;97435.63;;;13.97;100.00
70815;BME280;58428;49.478;10.986;2023-03-24T13:38:14;97439.25;;;14.04;100.00
70815;BME280;58428;49.478;10.986;2023-03-24T13:40:48;97457.59;;;13.81;100.00
70815;BME280;58428;49.478;10.986;2023-03-24T13:43:29;97503.72;;;13.49;100.00
70815;BME280;58428;49.478;10.986;2023-03-24T13:48:36;97463.22;;;12.70;100.00
70815;BME280;58428;49.478;10.986;2023-03-24T13:51:25;97458.63;;;12.74;100.00
70815;BME280;58428;49.478;10.986;2023-03-24T13:56:31;97456.53;;;13.09;100.00
70815;BME280;58428;49.478;10.986;2023-03-24T13:59:22;97461.34;;;13.19;100.00
70815;BME280;58428;49.478;10.986;2023-03-24T14:02:09;97464.63;;;13.31;100.00
70815;BME280;58428;49.478;10.986;2023-03-24T14:05:00;97461.47;;;13.55;100.00
70815;BME280;58428;49.478;10.986;2023-03-24T14:10:01;97459.13;;;14.08;100.00
70815;BME280;58428;49.478;10.986;2023-03-24T14:12:30;97457.13;;;14.37;100.00
70815;BME280;58428;49.478;10.986;2023-03-24T14:15:14;97464.78;;;14.65;100.00
70815;BME280;58428;49.478;10.986;2023-03-24T14:17:43;97473.00;;;14.68;100.00
70815;BME280;58428;49.478;10.986;2023-03-24T14:20:11;97481.13;;;14.65;100.00
70815;BME280;58428;49.478;10.986;2023-03-24T14:22:46;97509.44;;;14.24;100.00
70815;BME280;58428;49.478;10.986;2023-03-24T14:27:43;97503.75;;;13.26;100.00
70815;BME280;58428;49.478;10.986;2023-03-24T14:30:26;97497.31;;;13.12;100.00
70815;BME280;58428;49.478;10.986;2023-03-24T14:32:56;97496.66;;;12.96;100.00
70815;BME280;58428;49.478;10.986;2023-03-24T14:35:32;97478.19;;;13.05;100.00
70815;BME280;58428;49.478;10.986;2023-03-24T14:38:20;97482.88;;;13.30;100.00
70815;BME280;58428;49.478;10.986;2023-03-24T14:40:57;97492.28;;;13.36;100.00
70815;BME280;58428;49.478;10.986;2023-03-24T14:43:57;97493.69;;;13.53;100.00
70815;BME280;58428;49.478;10.986;2023-03-24T14:46:42;97502.63;;;13.53;100.00
70815;BME280;58428;49.478;10.986;2023-03-24T14:49:28;97505.28;;;13.50;100.00
70815;BME280;58428;49.478;10.986;2023-03-24T14:55:03;97503.28;;;13.47;100.00
70815;BME280;58428;49.478;10.986;2023-03-24T14:57:38;97517.97;;;13.42;100.00
70815;BME280;58428;49.478;10.986;2023-03-24T15:00:45;97516.56;;;13.26;100.00
70815;BME280;58428;49.478;10.986;2023-03-24T15:03:41;97529.25;;;13.19;100.00
70815;BME280;58428;49.478;10.986;2023-03-24T15:06:16;97525.06;;;13.02;100.00
70815;BME280;58428;49.478;10.986;2023-03-24T15:08:51;97524.38;;;13.05;100.00
70815;BME280;58428;49.478;10.986;2023-03-24T15:11:29;97540.94;;;13.00;100.00
70815;BME280;58428;49.478;10.986;2023-03-24T15:13:58;97531.56;;;12.76;100.00
70815;BME280;58428;49.478;10.986;2023-03-24T15:16:27;97540.81;;;12.52;100.00
70815;BME280;58428;49.478;10.986;2023-03-24T15:18:56;97538.97;;;12.38;100.00
70815;BME280;58428;49.478;10.986;2023-03-24T15:23:58;97529.47;;;12.10;100.00
70815;BME280;58428;49.478;10.986;2023-03-24T15:26:30;97524.97;;;12.17;100.00
70815;BME280;58428;49.478;10.986;2023-03-24T15:29:04;97522.06;;;12.25;100.00
70815;BME280;58428;49.478;10.986;2023-03-24T15:31:31;97513.53;;;12.27;100.00
70815;BME280;58428;49.478;10.986;2023-03-24T15:37:17;97513.69;;;12.15;100.00
70815;BME280;58428;49.478;10.986;2023-03-24T15:39:51;97502.06;;;12.14;100.00
70815;BME280;58428;49.478;10.986;2023-03-24T15:42:24;97495.03;;;12.10;100.00
70815;BME280;58428;49.478;10.986;2023-03-24T15:44:51;97500.53;;;12.13;100.00
70815;BME280;58428;49.478;10.986;2023-03-24T15:47:30;97496.44;;;12.04;100.00
70815;BME280;58428;49.478;10.986;2023-03-24T15:50:00;97494.16;;;12.06;100.00
70815;BME280;58428;49.478;10.986;2023-03-24T15:53:00;97481.75;;;12.05;100.00
70815;BME280;58428;49.478;10.986;2023-03-24T15:55:35;97486.16;;;12.13;100.00
70815;BME280;58428;49.478;10.986;2023-03-24T16:00:46;97489.28;;;12.15;100.00